Observations for DINARD PLEURTUIT, France (LFRD)

LFRD 171900Z AUTO 35007KT CAVOK 18/13 Q1019 NOSIG   
LFRD 171830Z AUTO 35006KT CAVOK 18/13 Q1018 NOSIG   
LFRD 171800Z AUTO 36006KT CAVOK 20/12 Q1018 NOSIG   
LFRD 171730Z AUTO 35008KT CAVOK 20/13 Q1018 NOSIG   
LFRD 171700Z AUTO 35007KT CAVOK 19/13 Q1019 NOSIG   
LFRD 171630Z AUTO 01007KT 340V040 CAVOK 19/14 Q1019 NOSIG   
LFRD 171600Z AUTO 36008KT CAVOK 19/15 Q1019 NOSIG   
LFRD 171530Z AUTO 35009KT 330V030 CAVOK 19/14 Q1019 NOSIG   
LFRD 171500Z AUTO 01007KT 340V040 9999 FEW048 OVC072 21/13 Q1019 NOSIG  
LFRD 171430Z AUTO 34008KT 9999 SCT049 OVC066 19/13 Q1019 NOSIG  
LFRD 171400Z AUTO 34006KT 9999 FEW046 OVC056 18/13 Q1019 NOSIG  
LFRD 171330Z AUTO 35007KT CAVOK 19/13 Q1019 NOSIG   
LFRD 171300Z AUTO 36008KT CAVOK 20/13 Q1019 NOSIG   
LFRD 171230Z AUTO 36006KT 330V030 CAVOK 20/14 Q1019 NOSIG   
LFRD 171200Z AUTO 35008KT CAVOK 19/13 Q1019 NOSIG   
LFRD 171130Z AUTO 33006KT 300V030 CAVOK 20/13 Q1020 NOSIG   
LFRD 171100Z AUTO 34007KT 290V010 9999 FEW049 OVC064 20/13 Q1020 NOSIG  
LFRD 171030Z AUTO 33007KT 9999 FEW041 SCT049 OVC062 19/13 Q1019 NOSIG   
LFRD 171000Z AUTO 34009KT 9999 FEW034 OVC062 19/13 Q1019 NOSIG  
LFRD 170930Z AUTO 32005KT 270V350 9999 SCT030 BKN038 OVC062 20/13 Q1019 NOSIG   
LFRD 170900Z AUTO 29004KT 240V350 9999 FEW029 OVC064 20/13 Q1019 NOSIG  
LFRD 170830Z AUTO 30005KT 270V340 CAVOK 20/12 Q1019 NOSIG   
LFRD 170800Z AUTO 30007KT 270V330 9999 FEW026 19/12 Q1019 NOSIG 
LFRD 170730Z AUTO 25005KT 220V280 CAVOK 19/13 Q1019 NOSIG   
LFRD 170700Z AUTO 25005KT 220V280 CAVOK 17/13 Q1019 NOSIG   
LFRD 170630Z AUTO 26006KT CAVOK 17/13 Q1019 NOSIG   
LFRD 170600Z AUTO 25005KT CAVOK 16/13 Q1019 NOSIG   
LFRD 170530Z AUTO 24005KT CAVOK 15/13 Q1018 NOSIG   
LFRD 170500Z AUTO 25004KT CAVOK 15/13 Q1018 NOSIG   
LFRD 170430Z AUTO 25005KT CAVOK 15/13 Q1018 NOSIG   
LFRD 170400Z AUTO 25004KT CAVOK 15/13 Q1018 NOSIG   
LFRD 170330Z AUTO 25004KT CAVOK 15/13 Q1018 NOSIG   
LFRD 170300Z AUTO 25005KT CAVOK 15/13 Q1018 NOSIG   
LFRD 170230Z AUTO 26005KT CAVOK 15/13 Q1018 NOSIG   
LFRD 170200Z AUTO 27005KT CAVOK 15/13 Q1018 NOSIG   
LFRD 170130Z AUTO 27004KT 9999 SCT049 BKN070 16/13 Q1018 NOSIG  
LFRD 170100Z AUTO 29007KT 9999 FEW047 BKN070 17/13 Q1018 NOSIG  
LFRD 170030Z AUTO 29007KT 9999 BKN044 BKN052 17/13 Q1018 NOSIG  
LFRD 170000Z AUTO 29006KT 9999 OVC044 17/14 Q1018 NOSIG 
LFRD 162330Z AUTO 30007KT 9999 FEW035 SCT042 BKN050 17/13 Q1018 NOSIG   
LFRD 162300Z AUTO 29006KT 9999 SCT037 BKN046 OVC080 17/14 Q1018 NOSIG   
LFRD 162230Z AUTO 30008KT 9999 BKN044 BKN082 17/15 Q1018 NOSIG  
LFRD 162200Z AUTO 30007KT 9999 FEW031 BKN043 17/14 Q1018 NOSIG  
LFRD 162130Z AUTO 29005KT 9999 BKN039 BKN076 17/14 Q1018 NOSIG  
LFRD 162100Z AUTO 30007KT 9999 FEW031 SCT060 17/14 Q1017 NOSIG  
LFRD 162030Z AUTO 30010KT CAVOK 18/14 Q1017 NOSIG   
LFRD 162000Z AUTO 31010KT 9999 FEW048 BKN064 BKN074 18/14 Q1017 NOSIG   
LFRD 161930Z AUTO 31010KT 9999 FEW028 18/15 Q1017 NOSIG 
LFRD 161900Z AUTO 31010KT 9999 SCT026 BKN082 18/15 Q1016 NOSIG  
LFRD 161830Z AUTO 32011KT 9999 FEW011 SCT054 18/16 Q1016 BECMG BKN030